createdAt,value
2019-05-21T00:00:00.816Z,0.00
2019-05-21T00:01:00.861Z,0.00
2019-05-21T00:02:00.758Z,0.00
2019-05-21T00:03:00.771Z,0.00
2019-05-21T00:04:00.730Z,0.00
2019-05-21T00:05:00.719Z,0.00
2019-05-21T00:06:00.726Z,0.00
2019-05-21T00:07:00.727Z,0.00
2019-05-21T00:08:00.695Z,0.00
2019-05-21T00:09:00.673Z,0.00
2019-05-21T00:10:00.668Z,0.00
2019-05-21T00:11:00.687Z,0.00
2019-05-21T00:12:00.641Z,0.00
2019-05-21T00:13:00.635Z,0.00
2019-05-21T00:14:00.626Z,0.00
2019-05-21T00:15:00.656Z,0.00
2019-05-21T00:16:00.607Z,0.00
2019-05-21T00:17:00.590Z,0.00
2019-05-21T00:18:00.581Z,0.00
2019-05-21T00:19:00.564Z,0.00
2019-05-21T00:20:00.554Z,0.00
2019-05-21T00:21:00.569Z,0.00
2019-05-21T00:22:00.535Z,0.00
2019-05-21T00:23:00.527Z,0.00
2019-05-21T00:24:00.507Z,0.00
2019-05-21T00:25:00.583Z,0.00
2019-05-21T00:26:00.492Z,0.00
2019-05-21T00:27:00.475Z,0.00
2019-05-21T00:28:00.470Z,0.00
2019-05-21T00:29:00.488Z,0.00
2019-05-21T00:30:00.446Z,0.00
2019-05-21T00:31:00.432Z,0.00
2019-05-21T00:32:00.429Z,0.00
2019-05-21T00:33:00.418Z,0.00
2019-05-21T00:34:00.430Z,0.00
2019-05-21T00:35:00.402Z,0.00
2019-05-21T00:36:00.381Z,0.00
2019-05-21T00:37:00.450Z,0.00
2019-05-21T00:38:00.366Z,0.00
2019-05-21T00:39:00.436Z,0.00
2019-05-21T00:40:00.363Z,0.00
2019-05-21T00:41:00.325Z,0.00
2019-05-21T00:42:00.321Z,0.00
2019-05-21T00:43:00.307Z,0.00
2019-05-21T00:44:00.287Z,0.00
2019-05-21T00:45:00.319Z,0.00
2019-05-21T00:46:00.298Z,0.00
2019-05-21T00:47:00.298Z,0.00
2019-05-21T00:48:00.252Z,0.00
2019-05-21T00:49:00.236Z,0.00
2019-05-21T00:50:00.245Z,0.00
2019-05-21T00:51:00.207Z,0.00
2019-05-21T00:52:07.697Z,0.00
2019-05-21T00:53:01.233Z,0.00
2019-05-21T00:54:00.737Z,0.00
2019-05-21T00:55:00.176Z,0.00
2019-05-21T00:56:00.158Z,0.00
2019-05-21T00:57:00.142Z,0.00
2019-05-21T00:58:00.163Z,0.00
2019-05-21T00:59:00.136Z,0.00
2019-05-21T01:00:00.123Z,0.00
2019-05-21T01:01:00.110Z,0.00
2019-05-21T01:02:00.161Z,0.00
2019-05-21T01:03:00.094Z,0.00
2019-05-21T01:04:00.082Z,0.00
2019-05-21T01:05:01.603Z,0.00
2019-05-21T01:06:00.046Z,0.00
2019-05-21T01:07:00.041Z,0.00
2019-05-21T01:08:00.026Z,0.00
2019-05-21T01:09:00.058Z,0.00
2019-05-21T01:10:00.004Z,0.00
2019-05-21T01:10:59.988Z,0.00
2019-05-21T01:12:00.027Z,0.00
2019-05-21T01:12:59.985Z,0.00
2019-05-21T01:13:59.952Z,0.00
2019-05-21T01:14:59.945Z,0.00
2019-05-21T01:15:59.936Z,0.00
2019-05-21T01:16:59.924Z,0.00
2019-05-21T01:17:59.946Z,0.00
2019-05-21T01:18:59.984Z,0.00
2019-05-21T01:19:59.927Z,0.00
2019-05-21T01:20:59.876Z,0.00
2019-05-21T01:21:59.875Z,0.00
2019-05-21T01:22:59.856Z,0.00
2019-05-21T01:23:59.866Z,0.00
2019-05-21T01:24:59.950Z,0.00
2019-05-21T01:25:59.827Z,0.00
2019-05-21T01:26:59.809Z,0.00
2019-05-21T01:27:59.797Z,0.00
2019-05-21T01:28:59.793Z,0.00
2019-05-21T01:29:59.822Z,0.00
2019-05-21T01:30:59.763Z,0.00
2019-05-21T01:31:59.758Z,0.00
2019-05-21T01:32:59.757Z,0.00
2019-05-21T01:33:59.733Z,0.00
2019-05-21T01:35:14.623Z,0.00
2019-05-21T01:36:00.809Z,0.00
2019-05-21T01:36:59.697Z,0.00
2019-05-21T01:37:59.686Z,0.00
2019-05-21T01:38:59.685Z,0.00
2019-05-21T01:39:59.667Z,0.00
2019-05-21T01:40:59.664Z,0.00
2019-05-21T01:41:59.701Z,0.00
2019-05-21T01:43:03.061Z,0.00
2019-05-21T01:43:59.627Z,0.00
2019-05-21T01:44:59.610Z,0.00
2019-05-21T01:45:59.640Z,0.00
2019-05-21T01:46:59.601Z,0.00
2019-05-21T01:47:59.659Z,0.00
2019-05-21T01:48:59.609Z,0.00
2019-05-21T01:49:59.552Z,0.00
2019-05-21T01:50:59.548Z,0.00
2019-05-21T01:51:59.542Z,0.00
2019-05-21T01:52:59.631Z,0.00
2019-05-21T01:53:59.512Z,0.00
2019-05-21T01:54:59.503Z,0.00
2019-05-21T01:55:59.486Z,0.00
2019-05-21T01:56:59.497Z,0.00
2019-05-21T01:57:59.466Z,0.00
2019-05-21T01:58:59.536Z,0.00
2019-05-21T01:59:59.473Z,0.00
2019-05-21T02:00:59.433Z,0.00
2019-05-21T02:01:59.423Z,0.00
2019-05-21T02:02:59.414Z,0.00
2019-05-21T02:03:59.405Z,0.00
2019-05-21T02:04:59.439Z,0.00
2019-05-21T02:05:59.378Z,0.00
2019-05-21T02:06:59.363Z,0.00
2019-05-21T02:07:59.366Z,0.00
2019-05-21T02:08:59.343Z,0.00
2019-05-21T02:09:59.421Z,0.00
2019-05-21T02:10:59.322Z,0.00
2019-05-21T02:11:59.311Z,0.00
2019-05-21T02:12:59.306Z,0.00
2019-05-21T02:13:59.290Z,0.00
2019-05-21T02:14:59.281Z,0.00
2019-05-21T02:15:59.340Z,0.00
2019-05-21T02:16:59.259Z,0.00
2019-05-21T02:17:59.241Z,0.00
2019-05-21T02:18:59.278Z,0.00
2019-05-21T02:19:59.217Z,0.00
2019-05-21T02:20:59.314Z,0.00
2019-05-21T02:21:59.225Z,0.00
2019-05-21T02:22:59.190Z,0.00
2019-05-21T02:23:59.186Z,0.00
2019-05-21T02:24:59.169Z,0.00
2019-05-21T02:25:59.153Z,0.00
2019-05-21T02:26:59.180Z,0.00
2019-05-21T02:27:59.130Z,0.00
2019-05-21T02:28:59.123Z,0.00
2019-05-21T02:29:59.114Z,0.00
2019-05-21T02:30:59.155Z,0.00
2019-05-21T02:31:59.151Z,0.00
2019-05-21T02:32:59.074Z,0.00
2019-05-21T02:33:59.061Z,0.00
2019-05-21T02:34:59.058Z,0.00
2019-05-21T02:35:59.041Z,0.00
2019-05-21T02:36:59.053Z,0.00
2019-05-21T02:37:59.026Z,0.00
2019-05-21T02:38:59.024Z,0.00
2019-05-21T02:39:59.001Z,0.00
2019-05-21T02:40:58.999Z,0.00
2019-05-21T02:41:58.975Z,0.00
2019-05-21T02:42:58.997Z,0.00
2019-05-21T02:43:58.954Z,0.00
2019-05-21T02:44:58.951Z,0.00
2019-05-21T02:45:58.980Z,0.00
2019-05-21T02:46:58.967Z,0.00
2019-05-21T02:47:58.912Z,0.00
2019-05-21T02:48:58.901Z,0.00
2019-05-21T02:49:58.902Z,0.00
2019-05-21T02:50:58.881Z,0.00
2019-05-21T02:51:58.904Z,0.00
2019-05-21T02:52:58.871Z,0.00
2019-05-21T02:53:58.847Z,0.00
2019-05-21T02:54:58.829Z,0.00
2019-05-21T02:55:58.832Z,0.00
2019-05-21T02:56:58.814Z,0.00
2019-05-21T02:57:58.845Z,0.00
2019-05-21T02:58:58.864Z,0.00
2019-05-21T02:59:58.780Z,0.00
2019-05-21T03:00:58.771Z,0.00
2019-05-21T03:01:58.777Z,0.00
2019-05-21T03:02:58.748Z,0.00
2019-05-21T03:03:58.764Z,0.00
2019-05-21T03:04:58.718Z,0.00
2019-05-21T03:06:13.204Z,0.00
2019-05-21T03:06:59.696Z,0.00
2019-05-21T03:07:58.717Z,0.00
2019-05-21T03:08:58.673Z,5.62
2019-05-21T03:09:58.669Z,5.62
2019-05-21T03:10:58.659Z,5.62
2019-05-21T03:11:58.674Z,5.62
2019-05-21T03:12:58.666Z,5.62
2019-05-21T03:13:58.655Z,5.62
2019-05-21T03:14:58.640Z,5.62
2019-05-21T03:15:58.619Z,5.62
2019-05-21T03:16:58.596Z,5.62
2019-05-21T03:17:58.584Z,5.62
2019-05-21T03:18:58.655Z,5.62
2019-05-21T03:19:58.560Z,5.62
2019-05-21T03:20:58.553Z,11.25
2019-05-21T03:21:58.534Z,11.25
2019-05-21T03:22:58.521Z,11.25
2019-05-21T03:23:58.547Z,11.25
2019-05-21T03:25:02.178Z,11.25
2019-05-21T03:25:58.482Z,11.25
2019-05-21T03:26:58.473Z,11.25
2019-05-21T03:27:58.467Z,11.25
2019-05-21T03:28:58.520Z,11.25
2019-05-21T03:29:58.458Z,16.88
2019-05-21T03:30:58.431Z,16.88
2019-05-21T03:31:58.482Z,16.88
2019-05-21T03:32:58.455Z,16.88
2019-05-21T03:33:58.432Z,16.88
2019-05-21T03:34:58.404Z,16.88
2019-05-21T03:35:58.479Z,16.88
2019-05-21T03:36:58.369Z,22.50
2019-05-21T03:37:58.350Z,22.50
2019-05-21T03:38:58.341Z,22.50
2019-05-21T03:39:58.354Z,22.50
2019-05-21T03:40:58.366Z,22.50
2019-05-21T03:41:58.314Z,28.12
2019-05-21T03:42:58.299Z,28.12
2019-05-21T03:43:58.289Z,33.75
2019-05-21T03:45:00.728Z,33.75
2019-05-21T03:45:58.377Z,39.38
2019-05-21T03:46:58.249Z,39.38
2019-05-21T03:47:58.249Z,39.38
2019-05-21T03:48:58.229Z,39.38
2019-05-21T03:49:58.217Z,45.00
2019-05-21T03:50:58.292Z,45.00
2019-05-21T03:51:58.195Z,45.00
2019-05-21T03:52:58.226Z,50.62
2019-05-21T03:53:58.181Z,50.62
2019-05-21T03:55:02.681Z,50.62
2019-05-21T03:55:59.161Z,56.25
2019-05-21T03:56:58.138Z,56.25
2019-05-21T03:57:58.214Z,56.25
2019-05-21T03:58:58.125Z,61.88
2019-05-21T03:59:58.110Z,61.88
2019-05-21T04:00:58.104Z,61.88
2019-05-21T04:01:58.146Z,61.88
2019-05-21T04:02:58.138Z,61.88
2019-05-21T04:03:58.066Z,61.88
2019-05-21T04:04:58.062Z,61.88
2019-05-21T04:05:58.039Z,67.50
2019-05-21T04:06:58.036Z,67.50
2019-05-21T04:07:58.106Z,73.12
2019-05-21T04:08:58.017Z,73.12
2019-05-21T04:09:58.003Z,78.75
2019-05-21T04:10:58.023Z,78.75
2019-05-21T04:11:57.977Z,84.38
2019-05-21T04:12:57.962Z,84.38
2019-05-21T04:13:57.953Z,90.00
2019-05-21T04:14:57.938Z,90.00
2019-05-21T04:15:57.935Z,90.00
2019-05-21T04:16:57.943Z,95.62
2019-05-21T04:17:57.906Z,95.62
2019-05-21T04:18:57.891Z,101.25
2019-05-21T04:19:57.899Z,101.25
2019-05-21T04:20:57.879Z,106.88
2019-05-21T04:21:57.874Z,106.88
2019-05-21T04:22:57.916Z,106.88
2019-05-21T04:23:57.842Z,112.50
2019-05-21T04:24:57.831Z,112.50
2019-05-21T04:25:57.832Z,118.12
2019-05-21T04:26:57.814Z,118.12
2019-05-21T04:27:57.824Z,118.12
2019-05-21T04:28:57.798Z,123.75
2019-05-21T04:29:57.776Z,123.75
2019-05-21T04:30:57.766Z,123.75
2019-05-21T04:31:57.763Z,129.38
2019-05-21T04:32:57.768Z,129.38
2019-05-21T04:33:57.740Z,135.00
2019-05-21T04:34:57.722Z,135.00
2019-05-21T04:35:57.711Z,135.00
2019-05-21T04:37:09.819Z,140.62
2019-05-21T04:37:58.712Z,140.62
2019-05-21T04:38:57.673Z,146.25
2019-05-21T04:39:57.691Z,146.25
2019-05-21T04:40:57.661Z,151.88
2019-05-21T04:41:57.645Z,151.88
2019-05-21T04:43:01.726Z,151.88
2019-05-21T04:43:57.627Z,151.88
2019-05-21T04:44:57.608Z,151.88
2019-05-21T04:45:57.599Z,151.88
2019-05-21T04:46:57.590Z,157.50
2019-05-21T04:47:57.617Z,157.50
2019-05-21T04:48:57.660Z,163.12
2019-05-21T04:49:57.568Z,163.12
2019-05-21T04:50:57.566Z,163.12
2019-05-21T04:51:57.535Z,168.75
2019-05-21T04:52:57.524Z,168.75
2019-05-21T04:53:57.511Z,168.75
2019-05-21T04:54:57.520Z,174.38
2019-05-21T04:55:57.488Z,174.38
2019-05-21T04:56:57.490Z,180.00
2019-05-21T04:57:57.464Z,180.00
2019-05-21T04:58:57.451Z,180.00
2019-05-21T04:59:57.486Z,185.62
2019-05-21T05:00:57.452Z,185.62
2019-05-21T05:01:57.426Z,191.25
2019-05-21T05:02:57.425Z,191.25
2019-05-21T05:03:57.419Z,196.88
2019-05-21T05:04:57.390Z,196.88
2019-05-21T05:05:57.409Z,202.50
2019-05-21T05:06:57.367Z,202.50
2019-05-21T05:07:57.357Z,202.50
2019-05-21T05:08:57.340Z,208.12
2019-05-21T05:09:57.340Z,208.12
2019-05-21T05:10:57.322Z,213.75
2019-05-21T05:11:57.390Z,213.75
2019-05-21T05:12:57.295Z,219.38
2019-05-21T05:13:57.304Z,219.38
2019-05-21T05:14:57.278Z,219.38
2019-05-21T05:15:57.267Z,225.00
2019-05-21T05:16:57.280Z,225.00
2019-05-21T05:17:57.255Z,230.62
2019-05-21T05:18:57.231Z,230.62
2019-05-21T05:19:57.231Z,236.25
2019-05-21T05:20:57.208Z,236.25
2019-05-21T05:21:57.267Z,236.25
2019-05-21T05:22:57.207Z,241.88
2019-05-21T05:23:57.181Z,241.88
2019-05-21T05:24:57.169Z,247.50
2019-05-21T05:25:57.162Z,247.50
2019-05-21T05:26:57.182Z,253.12
2019-05-21T05:27:57.131Z,258.75
2019-05-21T05:28:57.123Z,258.75
2019-05-21T05:29:57.175Z,264.38
2019-05-21T05:30:57.098Z,270.00
2019-05-21T05:31:57.101Z,270.00
2019-05-21T05:32:57.122Z,270.00
2019-05-21T05:33:57.063Z,281.25
2019-05-21T05:34:57.067Z,275.62
2019-05-21T05:35:57.157Z,275.62
2019-05-21T05:36:57.037Z,275.62
2019-05-21T05:37:57.027Z,281.25
2019-05-21T05:38:57.025Z,281.25
2019-05-21T05:39:56.996Z,286.88
2019-05-21T05:40:57.003Z,292.50
2019-05-21T05:41:57.059Z,292.50
2019-05-21T05:42:57.052Z,298.12
2019-05-21T05:43:56.953Z,303.75
2019-05-21T05:44:56.945Z,303.75
2019-05-21T05:45:56.962Z,303.75
2019-05-21T05:46:56.930Z,303.75
2019-05-21T05:47:56.965Z,309.38
2019-05-21T05:48:56.913Z,309.38
2019-05-21T05:49:56.886Z,309.38
2019-05-21T05:50:56.882Z,315.00
2019-05-21T05:51:56.871Z,320.62
2019-05-21T05:52:56.877Z,326.25
2019-05-21T05:53:56.919Z,326.25
2019-05-21T05:54:56.835Z,331.88
2019-05-21T05:55:56.821Z,331.88
2019-05-21T05:56:56.814Z,331.88
2019-05-21T05:57:56.834Z,337.50
2019-05-21T05:58:56.799Z,343.12
2019-05-21T05:59:56.788Z,348.75
2019-05-21T06:00:56.785Z,354.38
2019-05-21T06:01:56.762Z,354.38
2019-05-21T06:02:56.752Z,360.00
2019-05-21T06:03:56.774Z,360.00
2019-05-21T06:04:56.750Z,365.62
2019-05-21T06:05:56.725Z,365.62
2019-05-21T06:06:56.708Z,371.25
2019-05-21T06:07:59.646Z,376.88
2019-05-21T06:08:56.719Z,376.88
2019-05-21T06:09:56.676Z,376.88
2019-05-21T06:10:56.664Z,382.50
2019-05-21T06:11:56.656Z,388.12
2019-05-21T06:12:56.650Z,388.12
2019-05-21T06:13:56.635Z,393.75
2019-05-21T06:14:56.653Z,399.38
2019-05-21T06:15:56.625Z,399.38
2019-05-21T06:16:56.595Z,405.00
2019-05-21T06:17:56.600Z,410.62
2019-05-21T06:18:56.579Z,416.25
2019-05-21T06:19:56.590Z,421.88
2019-05-21T06:20:56.696Z,427.50
2019-05-21T06:21:56.615Z,427.50
2019-05-21T06:22:56.616Z,433.12
2019-05-21T06:23:56.524Z,433.12
2019-05-21T06:24:56.533Z,433.12
2019-05-21T06:25:56.523Z,438.75
2019-05-21T06:26:56.486Z,444.38
2019-05-21T06:27:56.473Z,455.62
2019-05-21T06:28:56.468Z,461.25
2019-05-21T06:29:56.467Z,472.50
2019-05-21T06:30:56.440Z,472.50
2019-05-21T06:31:56.526Z,466.88
2019-05-21T06:32:56.421Z,461.25
2019-05-21T06:33:56.411Z,472.50
2019-05-21T06:34:56.507Z,489.38
2019-05-21T06:35:56.393Z,478.12
2019-05-21T06:36:56.378Z,466.88
2019-05-21T06:37:56.374Z,461.25
2019-05-21T06:38:56.357Z,466.88
2019-05-21T06:39:56.340Z,466.88
2019-05-21T06:40:56.361Z,472.50
2019-05-21T06:41:56.318Z,472.50
2019-05-21T06:42:56.311Z,472.50
2019-05-21T06:43:56.303Z,472.50
2019-05-21T06:44:56.286Z,472.50
2019-05-21T06:45:56.312Z,478.12
2019-05-21T06:46:56.275Z,483.75
2019-05-21T06:47:56.255Z,495.00
2019-05-21T06:48:56.245Z,461.25
2019-05-21T06:49:56.231Z,292.50
2019-05-21T06:50:56.254Z,376.88
2019-05-21T06:51:56.251Z,489.38
2019-05-21T06:52:56.227Z,506.25
2019-05-21T06:53:56.188Z,545.62
2019-05-21T06:54:56.184Z,551.25
2019-05-21T06:55:56.169Z,528.75
2019-05-21T06:56:56.267Z,511.88
2019-05-21T06:57:56.155Z,500.62
2019-05-21T06:58:56.133Z,489.38
2019-05-21T06:59:56.126Z,489.38
2019-05-21T07:00:56.115Z,489.38
2019-05-21T07:01:56.103Z,483.75
2019-05-21T07:02:56.216Z,489.38
2019-05-21T07:03:56.078Z,495.00
2019-05-21T07:04:56.150Z,495.00
2019-05-21T07:05:58.736Z,495.00
2019-05-21T07:06:56.054Z,500.62
2019-05-21T07:07:56.110Z,495.00
2019-05-21T07:08:56.022Z,500.62
2019-05-21T07:09:56.022Z,495.00
2019-05-21T07:10:56.004Z,495.00
2019-05-21T07:11:56.002Z,495.00
2019-05-21T07:12:56.091Z,495.00
2019-05-21T07:13:56.088Z,495.00
2019-05-21T07:14:55.957Z,489.38
2019-05-21T07:15:55.957Z,489.38
2019-05-21T07:16:55.942Z,495.00
2019-05-21T07:17:55.929Z,495.00
2019-05-21T07:18:55.916Z,495.00
2019-05-21T07:19:55.992Z,500.62
2019-05-21T07:20:55.899Z,500.62
2019-05-21T07:22:11.567Z,500.62
2019-05-21T07:22:56.899Z,500.62
2019-05-21T07:23:55.869Z,500.62
2019-05-21T07:24:55.864Z,500.62
2019-05-21T07:25:55.869Z,500.62
2019-05-21T07:26:55.833Z,500.62
2019-05-21T07:27:55.859Z,506.25
2019-05-21T07:28:56.489Z,500.62
2019-05-21T07:29:55.803Z,500.62
2019-05-21T07:30:55.901Z,506.25
2019-05-21T07:31:55.785Z,506.25
2019-05-21T07:32:55.782Z,506.25
2019-05-21T07:33:55.761Z,506.25
2019-05-21T07:34:55.748Z,506.25
2019-05-21T07:35:55.736Z,506.25
2019-05-21T07:36:55.807Z,511.88
2019-05-21T07:37:55.727Z,511.88
2019-05-21T07:38:55.711Z,517.50
2019-05-21T07:39:55.759Z,523.12
2019-05-21T07:40:55.679Z,517.50
2019-05-21T07:41:55.673Z,478.12
2019-05-21T07:42:55.661Z,483.75
2019-05-21T07:43:55.659Z,461.25
2019-05-21T07:44:55.697Z,427.50
2019-05-21T07:45:55.668Z,438.75
2019-05-21T07:46:55.617Z,495.00
2019-05-21T07:47:55.609Z,506.25
2019-05-21T07:48:55.679Z,534.38
2019-05-21T07:49:55.589Z,596.25
2019-05-21T07:50:55.582Z,590.62
2019-05-21T07:51:55.578Z,585.00
2019-05-21T07:52:55.553Z,573.75
2019-05-21T07:53:55.535Z,562.50
2019-05-21T07:54:55.611Z,551.25
2019-05-21T07:55:55.519Z,545.62
2019-05-21T07:56:55.509Z,545.62
2019-05-21T07:57:55.519Z,545.62
2019-05-21T07:58:55.485Z,545.62
2019-05-21T07:59:55.556Z,540.00
2019-05-21T08:00:55.470Z,540.00
2019-05-21T08:01:55.453Z,540.00
2019-05-21T08:02:55.454Z,540.00
2019-05-21T08:03:55.436Z,540.00
2019-05-21T08:04:55.436Z,540.00
2019-05-21T08:05:55.492Z,540.00
2019-05-21T08:06:55.408Z,545.62
2019-05-21T08:07:55.428Z,540.00
2019-05-21T08:09:11.746Z,551.25
2019-05-21T08:09:56.360Z,545.62
2019-05-21T08:10:55.435Z,545.62
2019-05-21T08:11:55.348Z,545.62
2019-05-21T08:12:55.345Z,545.62
2019-05-21T08:13:55.326Z,545.62
2019-05-21T08:14:55.309Z,556.88
2019-05-21T08:15:55.339Z,551.25
2019-05-21T08:16:55.297Z,556.88
2019-05-21T08:17:55.283Z,590.62
2019-05-21T08:18:55.278Z,601.88
2019-05-21T08:19:55.263Z,590.62
2019-05-21T08:20:55.248Z,568.12
2019-05-21T08:21:55.291Z,562.50
2019-05-21T08:22:55.224Z,551.25
2019-05-21T08:23:55.218Z,556.88
2019-05-21T08:24:55.209Z,568.12
2019-05-21T08:25:55.194Z,573.75
2019-05-21T08:26:55.229Z,573.75
2019-05-21T08:27:55.299Z,568.12
2019-05-21T08:28:55.161Z,562.50
2019-05-21T08:29:55.148Z,562.50
2019-05-21T08:30:55.218Z,568.12
2019-05-21T08:31:55.126Z,562.50
2019-05-21T08:32:55.228Z,568.12
2019-05-21T08:33:55.105Z,573.75
2019-05-21T08:34:55.095Z,579.38
2019-05-21T08:35:55.105Z,579.38
2019-05-21T08:36:55.083Z,585.00
2019-05-21T08:37:55.079Z,585.00
2019-05-21T08:38:55.135Z,630.00
2019-05-21T08:39:55.045Z,663.75
2019-05-21T08:40:55.038Z,658.12
2019-05-21T08:41:55.027Z,691.88
2019-05-21T08:42:55.022Z,905.62
2019-05-21T08:43:55.011Z,1327.50
2019-05-21T08:44:55.046Z,1175.62
2019-05-21T08:45:54.984Z,2115.00
2019-05-21T08:46:54.972Z,2795.62
2019-05-21T08:47:54.969Z,3262.50
2019-05-21T08:48:54.952Z,3510.00
2019-05-21T08:49:54.941Z,3673.12
2019-05-21T08:50:55.012Z,3729.38
2019-05-21T08:51:54.920Z,4005.00
2019-05-21T08:52:54.905Z,4117.50
2019-05-21T08:53:54.902Z,4027.50
2019-05-21T08:54:56.404Z,3999.38
2019-05-21T08:55:54.959Z,4078.12
2019-05-21T08:56:54.866Z,3988.12
2019-05-21T08:58:06.317Z,3774.38
2019-05-21T08:58:55.850Z,3645.00
2019-05-21T08:59:54.846Z,3701.25
2019-05-21T09:00:54.910Z,3870.00
2019-05-21T09:01:58.821Z,4078.12
2019-05-21T09:02:54.810Z,4218.75
2019-05-21T09:03:54.799Z,4128.75
2019-05-21T09:04:54.785Z,4111.88
2019-05-21T09:05:54.868Z,4162.50
2019-05-21T09:06:54.767Z,4117.50
2019-05-21T09:07:54.764Z,3352.50
2019-05-21T09:08:54.757Z,3324.38
2019-05-21T09:09:54.743Z,3729.38
2019-05-21T09:10:55.013Z,3971.25
2019-05-21T09:11:54.732Z,4044.38
2019-05-21T09:12:54.720Z,815.62
2019-05-21T09:13:54.712Z,4038.75
2019-05-21T09:14:54.726Z,1631.25
2019-05-21T09:15:54.731Z,1372.50
2019-05-21T09:16:54.672Z,2536.88
2019-05-21T09:17:54.659Z,4230.00
2019-05-21T09:18:54.656Z,3999.38
2019-05-21T09:19:54.673Z,3678.75
2019-05-21T09:20:54.716Z,3639.38
2019-05-21T09:21:54.706Z,3853.12
2019-05-21T09:22:54.680Z,4224.38
2019-05-21T09:23:54.626Z,4134.38
2019-05-21T09:24:54.603Z,3954.38
2019-05-21T09:25:54.585Z,4432.50
2019-05-21T09:26:54.664Z,4241.25
2019-05-21T09:27:54.566Z,4230.00
2019-05-21T09:28:54.561Z,4263.75
2019-05-21T09:29:54.558Z,4297.50
2019-05-21T09:30:54.539Z,4162.50
2019-05-21T09:31:54.563Z,3825.00
2019-05-21T09:32:54.632Z,3825.00
2019-05-21T09:33:54.517Z,3285.00
2019-05-21T09:34:54.500Z,3555.00
2019-05-21T09:35:54.496Z,3476.25
2019-05-21T09:36:54.485Z,3341.25
2019-05-21T09:37:54.493Z,3144.38
2019-05-21T09:38:54.551Z,3155.62
2019-05-21T09:39:54.461Z,3566.25
2019-05-21T09:40:54.449Z,3999.38
2019-05-21T09:41:54.435Z,3470.62
2019-05-21T09:42:54.513Z,3684.38
2019-05-21T09:43:54.422Z,3645.00
2019-05-21T09:44:54.408Z,3903.75
2019-05-21T09:45:54.404Z,3611.25
2019-05-21T09:46:54.417Z,3661.88
2019-05-21T09:47:54.456Z,3864.38
2019-05-21T09:48:56.214Z,4111.88
2019-05-21T09:49:54.366Z,4314.38
2019-05-21T09:50:54.361Z,4308.75
2019-05-21T09:51:54.353Z,4123.12
2019-05-21T09:52:54.352Z,4111.88
2019-05-21T09:53:54.335Z,4269.38
2019-05-21T09:54:54.318Z,4179.38
2019-05-21T09:55:54.309Z,3819.38
2019-05-21T09:56:54.300Z,4252.50
2019-05-21T09:57:54.400Z,4016.25
2019-05-21T09:58:54.292Z,4111.88
2019-05-21T09:59:54.278Z,4230.00
2019-05-21T10:00:54.265Z,4179.38
2019-05-21T10:01:54.250Z,4291.88
2019-05-21T10:02:54.243Z,4297.50
2019-05-21T10:03:54.343Z,4291.88
2019-05-21T10:04:54.227Z,1136.25
2019-05-21T10:05:54.219Z,4258.12
2019-05-21T10:06:54.215Z,4404.38
2019-05-21T10:07:54.204Z,4370.62
2019-05-21T10:08:54.206Z,4286.25
2019-05-21T10:09:54.179Z,4314.38
2019-05-21T10:10:54.202Z,4308.75
2019-05-21T10:11:54.161Z,4280.62
2019-05-21T10:12:54.237Z,4241.25
2019-05-21T10:13:54.143Z,3971.25
2019-05-21T10:14:54.216Z,3481.88
2019-05-21T10:15:54.133Z,3701.25
2019-05-21T10:16:54.119Z,4134.38
2019-05-21T10:17:54.106Z,4128.75
2019-05-21T10:18:54.100Z,1316.25
2019-05-21T10:19:54.199Z,371.25
2019-05-21T10:20:54.084Z,247.50
2019-05-21T10:21:56.908Z,253.12
2019-05-21T10:22:54.063Z,292.50
2019-05-21T10:23:54.051Z,292.50
2019-05-21T10:24:54.051Z,270.00
2019-05-21T10:25:54.116Z,264.38
2019-05-21T10:26:54.026Z,286.88
2019-05-21T10:27:54.010Z,320.62
2019-05-21T10:28:54.004Z,388.12
2019-05-21T10:29:54.006Z,450.00
2019-05-21T10:30:53.984Z,787.50
2019-05-21T10:31:54.053Z,4230.00
2019-05-21T10:32:53.962Z,3622.50
2019-05-21T10:33:53.949Z,4291.88
2019-05-21T10:34:53.940Z,3105.00
2019-05-21T10:35:53.935Z,3588.75
2019-05-21T10:36:53.923Z,2221.88
2019-05-21T10:37:55.354Z,1288.12
2019-05-21T10:38:53.896Z,1552.50
2019-05-21T10:39:53.898Z,303.75
2019-05-21T10:40:53.972Z,326.25
2019-05-21T10:41:53.871Z,348.75
2019-05-21T10:42:53.871Z,331.88
2019-05-21T10:43:53.851Z,303.75
2019-05-21T10:44:53.839Z,286.88
2019-05-21T10:45:53.977Z,376.88
2019-05-21T10:46:53.820Z,2435.62
2019-05-21T10:47:53.810Z,3948.75
2019-05-21T10:48:53.797Z,3740.62
2019-05-21T10:49:53.795Z,2458.12
2019-05-21T10:50:53.777Z,483.75
2019-05-21T10:51:53.849Z,303.75
2019-05-21T10:52:53.753Z,365.62
2019-05-21T10:53:53.769Z,540.00
2019-05-21T10:54:53.731Z,652.50
2019-05-21T10:55:53.737Z,736.88
2019-05-21T10:56:53.712Z,1833.75
2019-05-21T10:57:53.719Z,3718.12
2019-05-21T10:58:53.691Z,3150.00
2019-05-21T10:59:53.680Z,3982.50
2019-05-21T11:00:53.705Z,4016.25
2019-05-21T11:01:53.716Z,3993.75
2019-05-21T11:02:53.735Z,3296.25
2019-05-21T11:03:53.640Z,2154.38
2019-05-21T11:04:53.634Z,2593.12
2019-05-21T11:06:09.122Z,2823.75
2019-05-21T11:06:54.611Z,2109.38
2019-05-21T11:07:53.685Z,1051.88
2019-05-21T11:08:53.675Z,849.38
2019-05-21T11:09:53.583Z,826.88
2019-05-21T11:10:53.574Z,838.12
2019-05-21T11:11:53.567Z,883.12
2019-05-21T11:12:53.558Z,821.25
2019-05-21T11:13:53.675Z,821.25
2019-05-21T11:14:53.533Z,720.00
2019-05-21T11:15:53.523Z,635.62
2019-05-21T11:16:53.514Z,601.88
2019-05-21T11:18:09.129Z,534.38
2019-05-21T11:18:54.575Z,506.25
2019-05-21T11:19:53.486Z,444.38
2019-05-21T11:20:53.476Z,438.75
2019-05-21T11:21:53.464Z,405.00
2019-05-21T11:22:53.446Z,410.62
2019-05-21T11:23:53.552Z,450.00
2019-05-21T11:24:53.484Z,500.62
2019-05-21T11:25:53.535Z,511.88
2019-05-21T11:26:53.405Z,590.62
2019-05-21T11:27:53.396Z,630.00
2019-05-21T11:28:53.471Z,618.75
2019-05-21T11:29:53.375Z,585.00
2019-05-21T11:30:53.378Z,573.75
2019-05-21T11:31:57.405Z,596.25
2019-05-21T11:32:53.340Z,641.25
2019-05-21T11:33:53.442Z,585.00
2019-05-21T11:34:53.321Z,540.00
2019-05-21T11:35:53.352Z,545.62
2019-05-21T11:36:53.312Z,556.88
2019-05-21T11:37:53.295Z,596.25
2019-05-21T11:38:53.280Z,613.12
2019-05-21T11:39:53.267Z,630.00
2019-05-21T11:40:53.261Z,495.00
2019-05-21T11:41:53.330Z,455.62
2019-05-21T11:42:53.462Z,416.25
2019-05-21T11:43:53.230Z,416.25
2019-05-21T11:44:53.213Z,382.50
2019-05-21T11:45:53.286Z,382.50
2019-05-21T11:46:53.275Z,382.50
2019-05-21T11:47:54.708Z,393.75
2019-05-21T11:48:53.174Z,393.75
2019-05-21T11:49:53.166Z,388.12
2019-05-21T11:50:53.157Z,365.62
2019-05-21T11:51:53.144Z,309.38
2019-05-21T11:52:53.216Z,326.25
2019-05-21T11:53:53.128Z,230.62
2019-05-21T11:54:55.889Z,202.50
2019-05-21T11:55:53.101Z,202.50
2019-05-21T11:56:53.096Z,208.12
2019-05-21T11:57:53.081Z,219.38
2019-05-21T11:58:53.128Z,236.25
2019-05-21T11:59:53.169Z,236.25
2019-05-21T12:00:53.049Z,236.25
2019-05-21T12:01:53.033Z,247.50
2019-05-21T12:02:53.080Z,258.75
2019-05-21T12:03:53.011Z,247.50
2019-05-21T12:04:53.019Z,236.25
2019-05-21T12:05:53.096Z,225.00
2019-05-21T12:06:53.018Z,213.75
2019-05-21T12:07:52.978Z,202.50
2019-05-21T12:08:56.954Z,213.75
2019-05-21T12:09:52.952Z,230.62
2019-05-21T12:10:53.027Z,253.12
2019-05-21T12:11:52.932Z,270.00
2019-05-21T12:12:52.916Z,270.00
2019-05-21T12:13:52.908Z,264.38
2019-05-21T12:14:52.902Z,247.50
2019-05-21T12:15:52.893Z,264.38
2019-05-21T12:16:52.965Z,213.75
2019-05-21T12:17:52.862Z,202.50
2019-05-21T12:18:52.937Z,208.12
2019-05-21T12:19:52.888Z,208.12
2019-05-21T12:20:52.829Z,185.62
2019-05-21T12:21:52.822Z,174.38
2019-05-21T12:22:52.849Z,174.38
2019-05-21T12:23:52.995Z,174.38
2019-05-21T12:24:52.801Z,174.38
2019-05-21T12:25:52.778Z,191.25
2019-05-21T12:26:52.768Z,219.38
2019-05-21T12:27:52.758Z,230.62
2019-05-21T12:28:52.827Z,241.88
2019-05-21T12:29:52.742Z,286.88
2019-05-21T12:30:52.728Z,365.62
2019-05-21T12:31:52.710Z,455.62
2019-05-21T12:32:52.698Z,331.88
2019-05-21T12:33:52.776Z,433.12
2019-05-21T12:34:52.763Z,382.50
2019-05-21T12:35:52.671Z,286.88
2019-05-21T12:36:52.687Z,286.88
2019-05-21T12:37:52.649Z,281.25
2019-05-21T12:38:52.647Z,264.38